createdAt,value
2017-01-07T00:00:34.374Z,969.85
2017-01-07T00:01:34.378Z,969.85
2017-01-07T00:02:34.382Z,969.81
2017-01-07T00:03:34.386Z,969.81
2017-01-07T00:04:34.388Z,969.81
2017-01-07T00:05:34.394Z,969.82
2017-01-07T00:06:34.398Z,969.79
2017-01-07T00:07:34.410Z,969.83
2017-01-07T00:08:34.406Z,969.8
2017-01-07T00:09:34.408Z,969.8
2017-01-07T00:10:34.414Z,969.82
2017-01-07T00:11:34.415Z,969.74
2017-01-07T00:12:34.419Z,969.7
2017-01-07T00:13:34.567Z,969.74
2017-01-07T00:14:34.431Z,969.73
2017-01-07T00:15:34.432Z,969.73
2017-01-07T00:16:34.435Z,969.73
2017-01-07T00:17:34.440Z,969.71
2017-01-07T00:18:34.442Z,969.69
2017-01-07T00:19:34.446Z,969.72
2017-01-07T00:20:34.450Z,969.67
2017-01-07T00:21:34.456Z,969.71
2017-01-07T00:22:34.458Z,969.71
2017-01-07T00:23:34.461Z,969.68
2017-01-07T00:24:34.466Z,969.69
2017-01-07T00:25:34.469Z,969.68
2017-01-07T00:26:34.472Z,969.69
2017-01-07T00:27:34.477Z,969.68
2017-01-07T00:28:34.481Z,969.72
2017-01-07T00:29:34.486Z,969.7
2017-01-07T00:30:34.490Z,969.74
2017-01-07T00:31:34.491Z,969.7
2017-01-07T00:32:34.496Z,969.67
2017-01-07T00:33:34.499Z,969.68
2017-01-07T00:34:34.520Z,969.7
2017-01-07T00:35:34.506Z,969.68
2017-01-07T00:36:34.511Z,969.72
2017-01-07T00:37:34.512Z,969.72
2017-01-07T00:38:34.517Z,969.71
2017-01-07T00:39:34.521Z,969.74
2017-01-07T00:40:34.525Z,969.76
2017-01-07T00:41:34.529Z,969.77
2017-01-07T00:42:34.532Z,969.74
2017-01-07T00:43:34.536Z,969.76
2017-01-07T00:44:34.540Z,969.76
2017-01-07T00:45:34.542Z,969.78
2017-01-07T00:46:34.549Z,969.68
2017-01-07T00:47:34.551Z,969.64
2017-01-07T00:48:34.553Z,969.65
2017-01-07T00:49:34.557Z,969.69
2017-01-07T00:50:34.561Z,969.63
2017-01-07T00:51:34.700Z,969.65
2017-01-07T00:52:34.717Z,969.61
2017-01-07T00:53:34.741Z,969.61
2017-01-07T00:54:34.854Z,969.6
2017-01-07T00:55:34.702Z,969.63
2017-01-07T00:56:34.867Z,969.59
2017-01-07T00:57:34.586Z,969.6
2017-01-07T00:58:34.589Z,969.57
2017-01-07T00:59:34.592Z,969.56
2017-01-07T01:00:34.595Z,969.59
2017-01-07T01:01:34.600Z,969.56
2017-01-07T01:02:34.653Z,969.55
2017-01-07T01:03:34.606Z,969.55
2017-01-07T01:04:34.610Z,969.52
2017-01-07T01:05:34.614Z,969.51
2017-01-07T01:06:34.617Z,969.48
2017-01-07T01:07:34.620Z,969.52
2017-01-07T01:08:34.632Z,969.52
2017-01-07T01:09:34.629Z,969.52
2017-01-07T01:10:34.631Z,969.48
2017-01-07T01:11:34.636Z,969.48
2017-01-07T01:12:34.639Z,969.47
2017-01-07T01:13:34.643Z,969.45
2017-01-07T01:14:34.645Z,969.49
2017-01-07T01:15:34.649Z,969.48
2017-01-07T01:16:34.699Z,969.5
2017-01-07T01:17:34.654Z,969.48
2017-01-07T01:18:34.659Z,969.42
2017-01-07T01:19:34.662Z,969.39
2017-01-07T01:21:34.670Z,969.44
2017-01-07T01:22:34.673Z,969.42
2017-01-07T01:23:34.677Z,969.39
2017-01-07T01:24:34.680Z,969.39
2017-01-07T01:25:34.683Z,969.4
2017-01-07T01:26:34.687Z,969.38
2017-01-07T01:27:34.690Z,969.34
2017-01-07T01:28:34.693Z,969.37
2017-01-07T01:29:34.699Z,969.4
2017-01-07T01:30:34.706Z,969.35
2017-01-07T01:31:34.705Z,969.31
2017-01-07T01:32:34.719Z,969.28
2017-01-07T01:33:34.714Z,969.31
2017-01-07T01:34:34.715Z,969.29
2017-01-07T01:35:34.739Z,969.26
2017-01-07T01:36:34.723Z,969.27
2017-01-07T01:37:34.725Z,969.23
2017-01-07T01:38:34.729Z,969.24
2017-01-07T01:39:34.732Z,969.19
2017-01-07T01:40:34.737Z,969.28
2017-01-07T01:41:34.740Z,969.22
2017-01-07T01:42:34.848Z,969.21
2017-01-07T01:43:34.750Z,969.19
2017-01-07T01:44:34.751Z,969.22
2017-01-07T01:45:34.753Z,969.23
2017-01-07T01:46:34.758Z,969.17
2017-01-07T01:47:34.760Z,969.14
2017-01-07T01:48:34.774Z,969.13
2017-01-07T01:49:34.768Z,969.09
2017-01-07T01:50:34.777Z,969.12
2017-01-07T01:51:34.775Z,969.1
2017-01-07T01:52:34.778Z,969.16
2017-01-07T01:53:34.782Z,969.15
2017-01-07T01:54:34.785Z,969.14
2017-01-07T01:55:34.792Z,969.18
2017-01-07T01:56:34.794Z,969.14
2017-01-07T01:57:34.797Z,969.13
2017-01-07T01:58:34.800Z,969.13
2017-01-07T01:59:34.805Z,969.08
2017-01-07T02:00:34.808Z,969.07
2017-01-07T02:01:34.862Z,969.08
2017-01-07T02:02:34.815Z,969.03
2017-01-07T02:03:34.819Z,969
2017-01-07T02:04:34.822Z,968.99
2017-01-07T02:05:34.826Z,968.97
2017-01-07T02:06:34.830Z,968.96
2017-01-07T02:07:34.833Z,968.99
2017-01-07T02:08:34.839Z,969
2017-01-07T02:09:34.841Z,968.94
2017-01-07T02:10:34.843Z,968.98
2017-01-07T02:11:34.850Z,968.95
2017-01-07T02:12:34.852Z,968.92
2017-01-07T02:13:34.856Z,968.94
2017-01-07T02:14:34.859Z,969
2017-01-07T02:15:34.884Z,968.98
2017-01-07T02:16:34.866Z,968.96
2017-01-07T02:17:34.871Z,968.98
2017-01-07T02:18:34.874Z,969.01
2017-01-07T02:19:34.879Z,969.02
2017-01-07T02:20:34.884Z,969
2017-01-07T02:21:34.886Z,969.04
2017-01-07T02:22:34.892Z,969.03
2017-01-07T02:23:34.893Z,969.01
2017-01-07T02:24:34.897Z,969.03
2017-01-07T02:25:34.901Z,968.99
2017-01-07T02:26:34.904Z,968.97
2017-01-07T02:27:34.907Z,968.97
2017-01-07T02:28:34.912Z,968.99
2017-01-07T02:29:34.915Z,968.99
2017-01-07T02:30:34.917Z,968.98
2017-01-07T02:31:34.922Z,968.96
2017-01-07T02:32:34.926Z,968.95
2017-01-07T02:33:34.931Z,968.95
2017-01-07T02:34:34.933Z,968.92
2017-01-07T02:35:34.937Z,968.92
2017-01-07T02:36:34.941Z,968.86
2017-01-07T02:37:34.943Z,968.9
2017-01-07T02:38:34.947Z,968.84
2017-01-07T02:39:34.950Z,968.87
2017-01-07T02:40:34.954Z,968.85
2017-01-07T02:41:34.957Z,968.85
2017-01-07T02:42:34.961Z,968.8
2017-01-07T02:43:34.965Z,968.85
2017-01-07T02:44:34.969Z,968.79
2017-01-07T02:45:34.970Z,968.85
2017-01-07T02:46:34.974Z,968.85
2017-01-07T02:47:34.978Z,968.87
2017-01-07T02:48:34.983Z,968.9
2017-01-07T02:49:34.998Z,968.86
2017-01-07T02:50:34.989Z,968.85
2017-01-07T02:51:34.992Z,968.88
2017-01-07T02:52:34.995Z,968.87
2017-01-07T02:53:34.999Z,968.87
2017-01-07T02:54:35.003Z,968.86
2017-01-07T02:55:35.007Z,968.88
2017-01-07T02:56:35.010Z,968.9
2017-01-07T02:57:35.014Z,968.9
2017-01-07T02:58:35.017Z,968.89
2017-01-07T02:59:35.019Z,968.87
2017-01-07T03:00:35.024Z,968.87
2017-01-07T03:01:35.029Z,968.9
2017-01-07T03:02:35.034Z,968.87
2017-01-07T03:03:35.034Z,968.84
2017-01-07T03:04:35.038Z,968.84
2017-01-07T03:05:35.042Z,968.82
2017-01-07T03:06:35.046Z,968.8
2017-01-07T03:07:35.049Z,968.85
2017-01-07T03:08:35.053Z,968.84
2017-01-07T03:09:35.068Z,968.86
2017-01-07T03:10:35.061Z,968.87
2017-01-07T03:11:35.064Z,968.85
2017-01-07T03:12:35.067Z,968.84
2017-01-07T03:13:35.070Z,968.83
2017-01-07T03:14:35.074Z,968.77
2017-01-07T03:15:35.078Z,968.76
2017-01-07T03:16:35.082Z,968.78
2017-01-07T03:17:35.086Z,968.78
2017-01-07T03:18:35.088Z,968.82
2017-01-07T03:19:35.093Z,968.84
2017-01-07T03:20:35.096Z,968.88
2017-01-07T03:21:35.100Z,968.86
2017-01-07T03:22:35.103Z,968.89
2017-01-07T03:23:35.107Z,968.85
2017-01-07T03:24:35.111Z,968.86
2017-01-07T03:25:35.113Z,968.82
2017-01-07T03:26:35.117Z,968.82
2017-01-07T03:27:35.122Z,968.81
2017-01-07T03:28:35.125Z,968.81
2017-01-07T03:29:35.145Z,968.79
2017-01-07T03:30:35.131Z,968.83
2017-01-07T03:31:35.135Z,968.83
2017-01-07T03:32:35.138Z,968.83
2017-01-07T03:33:35.141Z,968.82
2017-01-07T03:34:35.146Z,968.84
2017-01-07T03:35:35.150Z,968.82
2017-01-07T03:36:35.152Z,968.86
2017-01-07T03:37:35.157Z,968.88
2017-01-07T03:38:35.160Z,968.91
2017-01-07T03:39:35.163Z,968.86
2017-01-07T03:40:35.167Z,968.82
2017-01-07T03:41:35.171Z,968.82
2017-01-07T03:42:35.176Z,968.8
2017-01-07T03:43:35.179Z,968.81
2017-01-07T03:44:35.182Z,968.79
2017-01-07T03:45:35.184Z,968.83
2017-01-07T03:46:35.190Z,968.83
2017-01-07T03:47:35.193Z,968.77
2017-01-07T03:48:35.197Z,968.78
2017-01-07T03:49:35.205Z,968.77
2017-01-07T03:50:35.204Z,968.76
2017-01-07T03:51:35.207Z,968.81
2017-01-07T03:52:35.212Z,968.84
2017-01-07T03:53:35.216Z,968.76
2017-01-07T03:54:35.219Z,968.77
2017-01-07T03:55:35.223Z,968.75
2017-01-07T03:56:35.227Z,968.73
2017-01-07T03:57:35.231Z,968.77
2017-01-07T03:58:35.234Z,968.73
2017-01-07T03:59:35.238Z,968.68
2017-01-07T04:00:35.242Z,968.63
2017-01-07T04:01:35.246Z,968.61
2017-01-07T04:02:35.249Z,968.56
2017-01-07T04:03:35.265Z,968.6
2017-01-07T04:04:35.257Z,968.59
2017-01-07T04:05:35.260Z,968.6
2017-01-07T04:06:35.264Z,968.56
2017-01-07T04:07:35.266Z,968.57
2017-01-07T04:08:35.272Z,968.58
2017-01-07T04:09:35.274Z,968.6
2017-01-07T04:10:35.278Z,968.6
2017-01-07T04:11:35.282Z,968.62
2017-01-07T04:12:35.286Z,968.63
2017-01-07T04:13:35.289Z,968.66
2017-01-07T04:14:35.293Z,968.67
2017-01-07T04:15:35.297Z,968.66
2017-01-07T04:16:35.302Z,968.65
2017-01-07T04:17:35.304Z,968.65
2017-01-07T04:18:35.308Z,968.66
2017-01-07T04:19:35.312Z,968.62
2017-01-07T04:20:35.314Z,968.65
2017-01-07T04:21:35.319Z,968.62
2017-01-07T04:22:35.322Z,968.65
2017-01-07T04:23:35.327Z,968.64
2017-01-07T04:24:35.329Z,968.61
2017-01-07T04:25:35.333Z,968.62
2017-01-07T04:26:35.335Z,968.63
2017-01-07T04:27:35.340Z,968.56
2017-01-07T04:28:35.343Z,968.56
2017-01-07T04:29:35.347Z,968.55
2017-01-07T04:30:35.351Z,968.59
2017-01-07T04:31:35.355Z,968.6
2017-01-07T04:32:35.358Z,968.5
2017-01-07T04:33:35.360Z,968.49
2017-01-07T04:34:35.365Z,968.49
2017-01-07T04:35:35.368Z,968.47
2017-01-07T04:36:35.378Z,968.46
2017-01-07T04:37:35.376Z,968.46
2017-01-07T04:38:35.378Z,968.45
2017-01-07T04:39:35.383Z,968.37
2017-01-07T04:40:35.386Z,968.39
2017-01-07T04:41:35.390Z,968.4
2017-01-07T04:42:35.393Z,968.39
2017-01-07T04:43:35.415Z,968.37
2017-01-07T04:44:35.401Z,968.35
2017-01-07T04:45:35.405Z,968.35
2017-01-07T04:46:35.407Z,968.39
2017-01-07T04:47:35.412Z,968.37
2017-01-07T04:48:35.415Z,968.39
2017-01-07T04:49:35.418Z,968.42
2017-01-07T04:50:35.423Z,968.36
2017-01-07T04:51:35.426Z,968.35
2017-01-07T04:52:35.429Z,968.31
2017-01-07T04:53:35.432Z,968.3
2017-01-07T04:54:35.436Z,968.32
2017-01-07T04:55:35.441Z,968.31
2017-01-07T04:56:35.444Z,968.24
2017-01-07T04:57:35.447Z,968.3
2017-01-07T04:58:35.452Z,968.3
2017-01-07T04:59:35.454Z,968.3
2017-01-07T05:00:35.457Z,968.34
2017-01-07T05:01:35.461Z,968.35
2017-01-07T05:02:35.464Z,968.37
2017-01-07T05:03:35.471Z,968.34
2017-01-07T05:04:35.472Z,968.34
2017-01-07T05:05:35.476Z,968.33
2017-01-07T05:06:35.480Z,968.39
2017-01-07T05:07:35.483Z,968.43
2017-01-07T05:08:35.487Z,968.37
2017-01-07T05:09:35.490Z,968.33
2017-01-07T05:10:35.494Z,968.36
2017-01-07T05:11:35.497Z,968.33
2017-01-07T05:12:35.501Z,968.31
2017-01-07T05:13:35.504Z,968.25
2017-01-07T05:14:35.510Z,968.15
2017-01-07T05:15:35.511Z,968.12
2017-01-07T05:16:35.516Z,968.11
2017-01-07T05:17:35.533Z,968.12
2017-01-07T05:18:35.522Z,968.13
2017-01-07T05:19:35.526Z,968.11
2017-01-07T05:20:35.531Z,968.09
2017-01-07T05:21:35.533Z,968.04
2017-01-07T05:22:35.536Z,968.01
2017-01-07T05:23:35.540Z,967.92
2017-01-07T05:24:35.544Z,967.94
2017-01-07T05:25:35.548Z,967.98
2017-01-07T05:26:35.552Z,967.96
2017-01-07T05:27:35.555Z,967.96
2017-01-07T05:28:35.558Z,967.94
2017-01-07T05:29:35.563Z,967.98
2017-01-07T05:30:35.570Z,967.98
2017-01-07T05:31:35.569Z,968.02
2017-01-07T05:32:35.573Z,968.06
2017-01-07T05:33:35.576Z,968.11
2017-01-07T05:34:35.581Z,968.15
2017-01-07T05:35:35.585Z,968.15
2017-01-07T05:36:35.589Z,968.17
2017-01-07T05:37:35.595Z,968.21
2017-01-07T05:38:35.598Z,968.22
2017-01-07T05:39:35.599Z,968.25
2017-01-07T05:40:35.603Z,968.23
2017-01-07T05:41:35.606Z,968.14
2017-01-07T05:42:35.609Z,968.14
2017-01-07T05:43:35.613Z,968.04
2017-01-07T05:44:35.617Z,967.98
2017-01-07T05:45:35.619Z,968.01
2017-01-07T05:46:35.624Z,967.92
2017-01-07T05:47:35.628Z,967.87
2017-01-07T05:48:35.631Z,967.81
2017-01-07T05:49:35.635Z,967.84
2017-01-07T05:50:35.638Z,967.8
2017-01-07T05:51:35.641Z,967.93
2017-01-07T05:52:35.645Z,968.05
2017-01-07T05:53:35.649Z,968.1
2017-01-07T05:54:35.653Z,968.04
2017-01-07T05:55:35.656Z,968.04
2017-01-07T05:56:35.660Z,968.01
2017-01-07T05:57:35.680Z,967.99
2017-01-07T05:58:35.669Z,968.02
2017-01-07T05:59:35.671Z,968.02
2017-01-07T06:00:35.674Z,968.07
2017-01-07T06:01:35.678Z,968.09
2017-01-07T06:02:35.681Z,968.13
2017-01-07T06:03:35.685Z,968.08
2017-01-07T06:04:35.689Z,968.04
2017-01-07T06:05:35.694Z,968.04
2017-01-07T06:06:35.697Z,968.05
2017-01-07T06:07:35.699Z,968.02
2017-01-07T06:08:35.704Z,968.07
2017-01-07T06:09:35.709Z,968.08
2017-01-07T06:10:35.711Z,968.05
2017-01-07T06:11:35.715Z,968.05
2017-01-07T06:12:35.719Z,968
2017-01-07T06:13:35.721Z,967.97
2017-01-07T06:14:35.726Z,968.02
2017-01-07T06:15:35.730Z,968
2017-01-07T06:16:35.734Z,968.01
2017-01-07T06:17:35.739Z,967.99
2017-01-07T06:18:35.740Z,967.93
2017-01-07T06:19:35.745Z,967.93
2017-01-07T06:20:35.748Z,967.88
2017-01-07T06:21:35.752Z,967.86
2017-01-07T06:22:35.755Z,967.89
2017-01-07T06:23:35.759Z,967.87
2017-01-07T06:24:35.763Z,967.88
2017-01-07T06:25:35.767Z,967.85
2017-01-07T06:26:35.770Z,967.83
2017-01-07T06:27:35.775Z,967.78
2017-01-07T06:28:35.778Z,967.76
2017-01-07T06:29:35.781Z,967.78
2017-01-07T06:30:35.785Z,967.84
2017-01-07T06:31:35.795Z,967.88
2017-01-07T06:32:35.792Z,967.88
2017-01-07T06:33:35.796Z,967.91
2017-01-07T06:34:35.800Z,967.88
2017-01-07T06:35:35.804Z,967.86
2017-01-07T06:36:35.807Z,967.87
2017-01-07T06:37:35.811Z,967.89
2017-01-07T06:38:35.817Z,967.9
2017-01-07T06:39:35.818Z,967.92
2017-01-07T06:40:35.821Z,967.87
2017-01-07T06:41:35.826Z,967.82
2017-01-07T06:42:35.829Z,967.81
2017-01-07T06:43:35.833Z,967.76
2017-01-07T06:44:35.835Z,967.77
2017-01-07T06:45:35.840Z,967.82
2017-01-07T06:46:35.842Z,967.86
2017-01-07T06:47:35.848Z,967.91
2017-01-07T06:48:35.852Z,967.88
2017-01-07T06:49:35.857Z,967.96
2017-01-07T06:50:35.860Z,967.97
2017-01-07T06:51:35.864Z,967.98
2017-01-07T06:52:35.866Z,967.93
2017-01-07T06:53:35.871Z,967.93
2017-01-07T06:54:35.874Z,967.93
2017-01-07T06:55:35.878Z,967.89
2017-01-07T06:56:35.881Z,967.87
2017-01-07T06:57:35.886Z,967.93
2017-01-07T06:58:35.904Z,967.85
2017-01-07T06:59:35.893Z,967.96
2017-01-07T07:00:35.898Z,967.89
2017-01-07T07:01:35.903Z,967.91
2017-01-07T07:02:35.905Z,967.89
2017-01-07T07:03:35.908Z,967.87
2017-01-07T07:04:35.915Z,967.91
2017-01-07T07:05:35.919Z,967.92
2017-01-07T07:06:35.922Z,967.88
2017-01-07T07:07:35.925Z,967.9
2017-01-07T07:08:35.929Z,967.84
2017-01-07T07:09:35.933Z,967.9
2017-01-07T07:10:35.937Z,967.88
2017-01-07T07:11:35.943Z,967.88
2017-01-07T07:12:35.944Z,967.86
2017-01-07T07:13:35.949Z,967.89
2017-01-07T07:14:35.952Z,967.9
2017-01-07T07:15:35.955Z,967.94
2017-01-07T07:16:35.960Z,967.91
2017-01-07T07:17:35.963Z,967.89
2017-01-07T07:18:35.969Z,967.88
2017-01-07T07:19:35.972Z,967.96
2017-01-07T07:20:35.976Z,967.94
2017-01-07T07:21:35.980Z,967.99
2017-01-07T07:22:35.984Z,967.96
2017-01-07T07:23:35.987Z,968.01
2017-01-07T07:24:35.991Z,968.01
2017-01-07T07:25:36.012Z,968
2017-01-07T07:26:35.999Z,967.97
2017-01-07T07:27:36.003Z,967.94
2017-01-07T07:28:36.010Z,967.98
2017-01-07T07:29:36.012Z,967.97
2017-01-07T07:30:36.015Z,967.98
2017-01-07T07:31:36.018Z,967.95
2017-01-07T07:32:36.023Z,967.95
2017-01-07T07:33:36.028Z,967.98
2017-01-07T07:34:36.032Z,968
2017-01-07T07:35:36.035Z,968.04
2017-01-07T07:36:36.040Z,968.09
2017-01-07T07:37:36.042Z,968.13
2017-01-07T07:38:36.052Z,968.07
2017-01-07T07:39:36.051Z,968.12
2017-01-07T07:40:36.056Z,968.11
2017-01-07T07:41:36.059Z,968.11
2017-01-07T07:42:36.063Z,968.09
2017-01-07T07:43:36.069Z,968.12
2017-01-07T07:44:36.072Z,968.11
2017-01-07T07:45:36.075Z,968.1
2017-01-07T07:46:36.079Z,968.11
2017-01-07T07:47:36.084Z,968.07
2017-01-07T07:48:36.088Z,968
2017-01-07T07:49:36.094Z,967.98
2017-01-07T07:50:36.097Z,967.99
2017-01-07T07:51:36.102Z,967.99
2017-01-07T07:52:36.122Z,968.02
2017-01-07T07:53:36.109Z,968.03
2017-01-07T07:54:36.114Z,968.08
2017-01-07T07:55:36.119Z,968.07
2017-01-07T07:56:36.122Z,968.11
2017-01-07T07:57:36.127Z,968.11
2017-01-07T07:58:36.131Z,968.09
2017-01-07T07:59:36.135Z,968.06
2017-01-07T08:00:36.143Z,968.06
2017-01-07T08:01:36.145Z,968.02
2017-01-07T08:02:36.149Z,968.05
2017-01-07T08:03:36.152Z,968.01
2017-01-07T08:04:36.157Z,967.94
2017-01-07T08:05:36.161Z,967.92
2017-01-07T08:06:36.167Z,967.88
2017-01-07T08:07:36.170Z,967.87
2017-01-07T08:08:36.175Z,967.87
2017-01-07T08:09:36.179Z,967.89
2017-01-07T08:10:36.182Z,967.85
2017-01-07T08:11:36.187Z,967.86
2017-01-07T08:12:36.193Z,967.86
2017-01-07T08:13:36.198Z,967.78
2017-01-07T08:14:36.201Z,967.79
2017-01-07T08:15:36.204Z,967.75
2017-01-07T08:16:36.211Z,967.72
2017-01-07T08:17:36.215Z,967.73
2017-01-07T08:18:36.219Z,967.69
2017-01-07T08:19:36.232Z,967.69
2017-01-07T08:20:36.229Z,967.67
2017-01-07T08:21:36.232Z,967.69
2017-01-07T08:22:36.237Z,967.66
2017-01-07T08:23:36.242Z,967.68
2017-01-07T08:24:36.247Z,967.69
2017-01-07T08:25:36.251Z,967.71
2017-01-07T08:26:36.256Z,967.64
2017-01-07T08:27:36.261Z,967.6
2017-01-07T08:28:36.266Z,967.58
2017-01-07T08:29:36.270Z,967.59
2017-01-07T08:30:36.274Z,967.57
2017-01-07T08:31:36.280Z,967.55
2017-01-07T08:32:36.288Z,967.6
2017-01-07T08:33:36.288Z,967.59
2017-01-07T08:34:36.294Z,967.56
2017-01-07T08:35:36.299Z,967.6
2017-01-07T08:36:36.301Z,967.61
2017-01-07T08:37:36.308Z,967.61
2017-01-07T08:38:36.312Z,967.63
2017-01-07T08:39:36.333Z,967.6
2017-01-07T08:40:36.322Z,967.64
2017-01-07T08:41:36.327Z,967.68
2017-01-07T08:42:36.332Z,967.72
2017-01-07T08:43:36.335Z,967.7
2017-01-07T08:44:36.342Z,967.76
2017-01-07T08:45:36.347Z,967.75
2017-01-07T08:46:36.353Z,967.75
2017-01-07T08:47:36.355Z,967.75
2017-01-07T08:48:36.360Z,967.8
2017-01-07T08:49:36.365Z,967.82
2017-01-07T08:50:36.369Z,967.87
2017-01-07T08:51:36.376Z,967.93
2017-01-07T08:52:36.380Z,967.98
2017-01-07T08:53:36.403Z,967.92
2017-01-07T08:54:36.389Z,967.93
2017-01-07T08:55:36.396Z,967.98
2017-01-07T08:56:36.400Z,967.98
2017-01-07T08:57:36.405Z,967.99
2017-01-07T08:58:36.411Z,967.93
2017-01-07T08:59:36.414Z,968.02
2017-01-07T09:00:36.421Z,968.01
2017-01-07T09:01:36.425Z,968.01
2017-01-07T09:02:36.430Z,968.01
2017-01-07T09:03:36.436Z,968.03
2017-01-07T09:04:36.441Z,968.03
2017-01-07T09:05:36.446Z,968.03
2017-01-07T09:06:36.451Z,968.05
2017-01-07T09:07:36.461Z,968.05
2017-01-07T09:08:36.463Z,968.08
2017-01-07T09:09:36.467Z,968.03
2017-01-07T09:10:36.473Z,967.97
2017-01-07T09:11:36.479Z,968.02
2017-01-07T09:12:36.483Z,968
2017-01-07T09:13:36.502Z,967.96
2017-01-07T09:14:36.496Z,967.96
2017-01-07T09:15:36.500Z,967.89
2017-01-07T09:16:36.504Z,967.91
2017-01-07T09:17:36.510Z,967.93
2017-01-07T09:18:36.515Z,967.92
2017-01-07T09:19:36.522Z,967.9
2017-01-07T09:20:36.526Z,967.88
2017-01-07T09:21:36.533Z,967.84
2017-01-07T09:22:36.538Z,967.8
2017-01-07T09:23:36.542Z,967.85
2017-01-07T09:24:36.548Z,967.77
2017-01-07T09:25:36.553Z,967.76
2017-01-07T09:26:36.559Z,967.75
2017-01-07T09:27:36.571Z,967.8
2017-01-07T09:28:36.571Z,967.77
2017-01-07T09:29:36.576Z,967.8
2017-01-07T09:30:36.580Z,967.82
2017-01-07T09:31:36.586Z,967.85
2017-01-07T09:32:36.592Z,967.84
2017-01-07T09:33:36.599Z,967.77
2017-01-07T09:34:36.603Z,967.81
2017-01-07T09:35:36.609Z,967.76
2017-01-07T09:36:36.615Z,967.72
2017-01-07T09:37:36.621Z,967.69
2017-01-07T09:38:36.626Z,967.69
2017-01-07T09:39:36.632Z,967.69
2017-01-07T09:40:36.638Z,967.65
2017-01-07T09:41:36.645Z,967.7
2017-01-07T09:42:36.649Z,967.68
2017-01-07T09:43:36.655Z,967.68
2017-01-07T09:44:36.661Z,967.71
2017-01-07T09:45:36.668Z,967.7
2017-01-07T09:46:36.672Z,967.67
2017-01-07T09:47:36.679Z,967.71
2017-01-07T09:48:36.683Z,967.65
2017-01-07T09:49:36.690Z,967.62
2017-01-07T09:50:36.696Z,967.61
2017-01-07T09:51:36.702Z,967.66
2017-01-07T09:52:36.709Z,967.6
2017-01-07T09:53:36.720Z,967.59
2017-01-07T09:54:36.783Z,967.57
2017-01-07T09:55:36.726Z,967.51
2017-01-07T09:56:36.733Z,967.56
2017-01-07T09:57:36.737Z,967.56
2017-01-07T09:58:36.747Z,967.57
2017-01-07T09:59:36.750Z,967.56
2017-01-07T10:00:36.756Z,967.59
2017-01-07T10:01:36.762Z,967.6
2017-01-07T10:02:36.767Z,967.6
2017-01-07T10:03:36.776Z,967.57
2017-01-07T10:04:36.781Z,967.6
2017-01-07T10:05:36.788Z,967.59
2017-01-07T10:06:36.793Z,967.61
2017-01-07T10:07:36.798Z,967.58
2017-01-07T10:08:36.810Z,967.51
2017-01-07T10:09:36.812Z,967.49
2017-01-07T10:10:36.817Z,967.38
2017-01-07T10:11:36.822Z,967.35
2017-01-07T10:12:36.830Z,967.31
2017-01-07T10:13:36.836Z,967.33
2017-01-07T10:14:36.845Z,967.28
2017-01-07T10:15:36.850Z,967.28
2017-01-07T10:16:36.856Z,967.28
2017-01-07T10:17:36.863Z,967.24
2017-01-07T10:18:36.868Z,967.22
2017-01-07T10:19:36.875Z,967.18
2017-01-07T10:20:36.883Z,967.18
2017-01-07T10:21:36.889Z,967.18
2017-01-07T10:22:36.894Z,967.14
2017-01-07T10:23:36.900Z,967.14
2017-01-07T10:24:36.907Z,967.04
2017-01-07T10:25:36.914Z,967.01
2017-01-07T10:26:36.920Z,967.02
2017-01-07T10:27:36.927Z,966.98
2017-01-07T10:28:36.934Z,967.03
2017-01-07T10:29:36.940Z,966.95
2017-01-07T10:30:36.947Z,966.94
2017-01-07T10:31:36.955Z,966.96
2017-01-07T10:32:36.960Z,966.96
2017-01-07T10:33:36.966Z,966.97
2017-01-07T10:34:36.973Z,966.95
2017-01-07T10:35:36.979Z,966.95
2017-01-07T10:36:36.986Z,966.97
2017-01-07T10:37:36.993Z,966.94
2017-01-07T10:38:37.001Z,966.95
2017-01-07T10:39:37.007Z,966.95
2017-01-07T10:40:37.013Z,966.95
2017-01-07T10:41:37.020Z,966.98
2017-01-07T10:42:37.044Z,966.94
2017-01-07T10:43:37.035Z,966.96
2017-01-07T10:44:37.040Z,966.91
2017-01-07T10:45:37.048Z,966.88
2017-01-07T10:46:37.056Z,966.86
2017-01-07T10:47:37.061Z,966.84
2017-01-07T10:48:37.069Z,966.86
2017-01-07T10:49:37.077Z,966.87
2017-01-07T10:50:37.084Z,966.85
2017-01-07T10:51:37.092Z,966.83
2017-01-07T10:52:37.099Z,966.81
2017-01-07T10:53:37.105Z,966.78
2017-01-07T10:54:37.112Z,966.74
2017-01-07T10:55:37.119Z,966.73
2017-01-07T10:56:37.130Z,966.73
2017-01-07T10:57:37.133Z,966.74
2017-01-07T10:58:37.142Z,966.77
2017-01-07T10:59:37.151Z,966.81
2017-01-07T11:00:37.163Z,966.8
2017-01-07T11:01:37.163Z,966.78
2017-01-07T11:02:37.169Z,966.75
2017-01-07T11:03:37.183Z,966.75
2017-01-07T11:04:37.187Z,966.74
2017-01-07T11:05:37.194Z,966.7
2017-01-07T11:06:37.199Z,966.75
2017-01-07T11:07:37.308Z,966.73
2017-01-07T11:08:37.214Z,966.71
2017-01-07T11:09:37.222Z,966.71
2017-01-07T11:10:37.251Z,966.7
2017-01-07T11:11:37.237Z,966.7
2017-01-07T11:12:37.245Z,966.65
2017-01-07T11:13:37.251Z,966.65
2017-01-07T11:14:37.259Z,966.65
2017-01-07T11:15:37.267Z,966.56
2017-01-07T11:16:37.275Z,966.55
2017-01-07T11:17:37.282Z,966.53
2017-01-07T11:18:37.289Z,966.53
2017-01-07T11:19:37.299Z,966.5
2017-01-07T11:20:37.304Z,966.49
2017-01-07T11:21:37.311Z,966.45
2017-01-07T11:22:37.321Z,966.42
2017-01-07T11:23:37.328Z,966.45
2017-01-07T11:24:37.336Z,966.43
2017-01-07T11:25:37.341Z,966.41
2017-01-07T11:26:37.350Z,966.36
2017-01-07T11:27:37.358Z,966.38
2017-01-07T11:28:37.365Z,966.35
2017-01-07T11:29:37.375Z,966.36
2017-01-07T11:30:37.380Z,966.33
2017-01-07T11:31:37.388Z,966.32
2017-01-07T11:32:37.396Z,966.3
2017-01-07T11:33:37.404Z,966.3
2017-01-07T11:34:37.412Z,966.27
2017-01-07T11:35:37.419Z,966.29
2017-01-07T11:36:37.428Z,966.26
2017-01-07T11:37:37.436Z,966.21
2017-01-07T11:38:37.443Z,966.23
2017-01-07T11:39:37.450Z,966.21
2017-01-07T11:40:37.458Z,966.14
2017-01-07T11:41:37.466Z,966.14
2017-01-07T11:42:37.473Z,966.1
2017-01-07T11:43:37.481Z,966.05
2017-01-07T11:44:37.489Z,966.02
2017-01-07T11:45:37.497Z,966.03
2017-01-07T11:46:37.504Z,966.03
2017-01-07T11:47:37.512Z,966.02
2017-01-07T11:48:37.524Z,966.04
2017-01-07T11:49:37.529Z,966.03
2017-01-07T11:50:37.535Z,966
2017-01-07T11:51:37.553Z,965.97
2017-01-07T11:52:37.552Z,965.97
2017-01-07T11:53:37.560Z,965.95
2017-01-07T11:54:37.568Z,965.92
2017-01-07T11:55:37.577Z,965.92
2017-01-07T11:56:37.585Z,965.9
2017-01-07T11:57:37.592Z,965.86
2017-01-07T11:58:37.617Z,965.85
2017-01-07T11:59:37.609Z,965.84
2017-01-07T12:00:37.616Z,965.84
2017-01-07T12:01:37.624Z,965.83
2017-01-07T12:02:37.632Z,965.8
2017-01-07T12:03:37.641Z,965.78
2017-01-07T12:04:37.648Z,965.83
2017-01-07T12:05:37.656Z,965.83
2017-01-07T12:06:37.664Z,965.83
2017-01-07T12:07:37.672Z,965.82
2017-01-07T12:08:37.678Z,965.83
2017-01-07T12:09:37.688Z,965.83
2017-01-07T12:10:37.698Z,965.85
2017-01-07T12:11:37.703Z,965.87
2017-01-07T12:12:37.711Z,965.83
2017-01-07T12:13:37.722Z,965.79
2017-01-07T12:14:37.729Z,965.81
2017-01-07T12:15:37.736Z,965.87
2017-01-07T12:16:37.744Z,965.77
2017-01-07T12:17:37.753Z,965.8
2017-01-07T12:18:37.761Z,965.76
2017-01-07T12:19:37.769Z,965.74
2017-01-07T12:20:37.779Z,965.7
2017-01-07T12:21:37.786Z,965.71
2017-01-07T12:22:37.794Z,965.66
2017-01-07T12:23:37.804Z,965.62
2017-01-07T12:24:37.809Z,965.6
2017-01-07T12:25:37.818Z,965.61
2017-01-07T12:26:37.827Z,965.6
2017-01-07T12:27:37.834Z,965.64
2017-01-07T12:28:37.843Z,965.62
2017-01-07T12:29:37.851Z,965.59
2017-01-07T12:30:37.858Z,965.62
2017-01-07T12:31:37.867Z,965.59
2017-01-07T12:32:37.875Z,965.57